Time;durP1;ratioP1;P1;durP2;ratioP2;P2;SDS_P1;SDS_P2;PMS_P1;PMS_P2;Temp;Humidity;BMP_temperature;BMP_pressure;BME280_temperature;BME280_humidity;BME280_pressure;Samples;Min_cycle;Max_cycle;Signal;HPM_P1;HPM_P2
2022/08/09 00:00:53;;;;;;;2.08;1.38;;;;;;;29.92;35.14;100640.06;5005596;28;20096;-73
2022/08/09 00:03:25;;;;;;;1.85;1.50;;;;;;;30.03;34.98;100664.34;5008678;28;20150;-74
2022/08/09 00:06:00;;;;;;;2.63;1.65;;;;;;;30.01;35.24;100647.59;4999643;28;20046;-72
2022/08/09 00:08:31;;;;;;;7.45;1.85;;;;;;;30.01;35.49;100632.44;5001468;28;20113;-76
2022/08/09 00:11:00;;;;;;;4.88;1.70;;;;;;;30.21;35.49;100659.81;5004272;28;20097;-74
2022/08/09 00:13:31;;;;;;;3.35;1.48;;;;;;;30.32;35.31;100651.28;4999648;28;20050;-72
2022/08/09 00:16:00;;;;;;;5.32;1.70;;;;;;;30.22;34.61;100653.56;4999935;28;20211;-72
2022/08/09 00:18:29;;;;;;;2.83;1.63;;;;;;;30.22;35.21;100650.91;4999546;28;20110;-73
2022/08/09 00:20:57;;;;;;;4.15;1.42;;;;;;;30.14;35.22;100645.09;5003395;28;20061;-74
2022/08/09 00:23:26;;;;;;;4.78;1.50;;;;;;;30.17;35.11;100640.47;5011957;28;20061;-75
2022/08/09 00:25:56;;;;;;;2.50;1.45;;;;;;;30.19;35.06;100654.59;5003116;28;20050;-72
2022/08/09 00:28:26;;;;;;;3.88;1.77;;;;;;;29.98;35.49;100651.25;5001288;28;20046;-73
2022/08/09 00:31:04;;;;;;;4.30;2.15;;;;;;;29.86;36.22;100642.09;5005190;28;20058;-74
2022/08/09 00:33:34;;;;;;;6.13;1.50;;;;;;;30.09;36.13;100648.00;4999753;28;20069;-74
2022/08/09 00:36:03;;;;;;;4.15;1.23;;;;;;;30.14;35.25;100634.41;5002922;28;20058;-74
2022/08/09 00:38:34;;;;;;;3.15;1.20;;;;;;;30.17;35.85;100644.91;4998080;28;20054;-75
2022/08/09 00:41:05;;;;;;;6.85;1.55;;;;;;;30.15;35.66;100637.03;4999354;28;20118;-77
2022/08/09 00:43:36;;;;;;;7.18;1.40;;;;;;;30.10;35.82;100633.75;4994874;28;20138;-74
2022/08/09 00:46:16;;;;;;;7.53;2.85;;;;;;;30.10;35.75;100623.06;4998174;28;20093;-75
2022/08/09 00:48:45;;;;;;;3.92;1.58;;;;;;;30.32;35.97;100660.16;5000668;28;20073;-73
2022/08/09 00:51:16;;;;;;;3.10;1.40;;;;;;;30.18;36.09;100657.34;5003627;28;20049;-73
2022/08/09 00:53:46;;;;;;;7.38;1.77;;;;;;;30.03;37.38;100638.53;5005251;28;20317;-74
2022/08/09 00:56:24;;;;;;;4.30;1.45;;;;;;;30.19;37.02;100659.94;4996016;28;20057;-75
2022/08/09 00:58:53;;;;;;;4.47;1.65;;;;;;;30.00;36.32;100629.84;4997713;28;20058;-73
2022/08/09 01:01:27;;;;;;;3.75;1.60;;;;;;;30.10;37.96;100643.53;5001807;28;20062;-77
2022/08/09 01:04:08;;;;;;;2.90;1.55;;;;;;;30.16;37.63;100654.75;5004548;28;20517;-76
2022/08/09 01:06:49;;;;;;;3.22;1.42;;;;;;;30.11;37.15;100640.78;4989850;28;20082;-78
2022/08/09 01:09:31;;;;;;;4.72;1.52;;;;;;;30.20;36.96;100660.78;5005537;28;20109;-76
2022/08/09 01:15:03;;;;;;;4.20;1.52;;;;;;;30.09;36.85;100657.84;4955341;28;20106;-74
2022/08/09 01:17:41;;;;;;;4.72;1.40;;;;;;;29.92;36.62;100640.06;4996522;28;20345;-74
2022/08/09 01:20:20;;;;;;;2.70;1.50;;;;;;;29.88;36.42;100643.84;5002850;28;20050;-73
2022/08/09 01:23:09;;;;;;;1.92;1.38;;;;;;;29.67;36.72;100630.66;4988657;28;20224;-73
2022/08/09 01:26:12;;;;;;;2.25;1.25;;;;;;;29.44;37.24;100630.03;4996355;28;20117;-76
2022/08/09 01:28:46;;;;;;;3.92;1.10;;;;;;;29.50;37.30;100627.97;4996766;28;20057;-76
2022/08/09 01:31:18;;;;;;;3.25;1.10;;;;;;;29.67;37.32;100667.13;5003261;28;20046;-75
2022/08/09 01:33:56;;;;;;;2.05;0.90;;;;;;;29.51;38.06;100654.56;4994633;28;20043;-73
2022/08/09 01:36:30;;;;;;;1.63;0.90;;;;;;;29.54;37.98;100673.06;4998853;28;20046;-71
2022/08/09 01:39:02;;;;;;;3.38;1.00;;;;;;;29.48;38.43;100683.19;4991657;28;20094;-72
2022/08/09 01:41:43;;;;;;;;;;;;;;;29.38;38.82;100672.97;5001713;28;20046;-73
2022/08/09 01:44:20;;;;;;;3.10;0.88;;;;;;;29.21;38.39;100655.19;4998577;28;19985;-74
2022/08/09 01:46:54;;;;;;;5.25;1.10;;;;;;;29.14;38.69;100652.91;4993506;28;20050;-75
2022/08/09 01:49:34;;;;;;;4.15;1.00;;;;;;;29.08;39.01;100659.38;4998124;28;20056;-75
2022/08/09 01:52:25;;;;;;;1.83;1.10;;;;;;;28.89;39.73;100626.59;4995795;28;20117;-79
2022/08/09 01:58:15;;;;;;;3.45;1.17;;;;;;;28.62;40.60;100661.56;4996147;28;20085;-76
2022/08/09 02:04:03;;;;;;;8.00;1.17;;;;;;;28.42;41.21;100673.13;4965169;28;20744;-73
2022/08/09 02:09:21;;;;;;;3.78;0.90;;;;;;;28.16;41.04;100648.56;4995833;28;20057;-74
2022/08/09 02:11:55;;;;;;;3.57;0.93;;;;;;;28.16;41.48;100688.47;5003315;28;20053;-74
2022/08/09 02:14:28;;;;;;;1.65;0.93;;;;;;;28.09;41.45;100687.03;5003577;28;20054;-73
2022/08/09 02:17:00;;;;;;;2.65;1.33;;;;;;;28.04;41.30;100691.69;5003230;28;20057;-77
2022/08/09 02:19:44;;;;;;;2.78;0.90;;;;;;;28.04;41.46;100697.00;5004627;28;20042;-78
2022/08/09 02:22:36;;;;;;;3.15;1.20;;;;;;;27.93;40.91;100688.66;4998886;28;20082;-81
2022/08/09 02:25:18;;;;;;;1.77;0.90;;;;;;;27.72;41.31;100688.59;5003163;28;20054;-83
2022/08/09 02:27:57;;;;;;;;;;;;;;;27.56;41.57;100696.38;5007736;28;20303;-78
2022/08/09 02:30:27;;;;;;;3.25;1.33;;;;;;;27.45;41.51;100697.75;5007066;28;19924;-78
2022/08/09 02:32:57;;;;;;;5.63;1.25;;;;;;;27.14;41.61;100661.78;4999181;28;20050;-76
2022/08/09 02:35:37;;;;;;;2.55;1.20;;;;;;;27.15;41.68;100676.81;5010893;28;20082;-79
2022/08/09 02:38:10;;;;;;;4.38;1.00;;;;;;;27.12;42.63;100688.41;5000147;28;20161;-80
2022/08/09 02:40:50;;;;;;;5.80;1.00;;;;;;;26.88;42.46;100676.13;5004122;28;20053;-79
2022/08/09 02:43:28;;;;;;;4.00;1.33;;;;;;;26.70;42.41;100669.72;5007066;28;20054;-78
2022/08/09 02:46:02;;;;;;;1.73;1.00;;;;;;;26.57;42.99;100673.78;5012371;28;20062;-77
2022/08/09 02:48:35;;;;;;;4.32;1.30;;;;;;;26.50;42.86;100695.22;5007987;28;20381;-79
2022/08/09 02:51:18;;;;;;;3.67;1.10;;;;;;;26.24;43.44;100676.75;5002331;28;20070;-77
2022/08/09 02:53:52;;;;;;;2.67;1.10;;;;;;;26.06;43.60;100676.50;5004488;28;20042;-78
2022/08/09 02:56:30;;;;;;;1.92;1.10;;;;;;;26.10;43.61;100712.59;5006419;28;20062;-77
2022/08/09 02:59:05;;;;;;;4.97;1.25;;;;;;;25.80;43.76;100687.13;4998608;28;20074;-77
2022/08/09 03:01:35;;;;;;;1.92;1.20;;;;;;;25.61;44.69;100706.31;5005170;28;20112;-75
2022/08/09 03:04:12;;;;;;;2.00;1.10;;;;;;;25.41;45.37;100722.00;5005346;28;20433;-77
2022/08/09 03:06:46;;;;;;;2.15;1.25;;;;;;;25.31;45.58;100720.56;5000756;28;20053;-74
2022/08/09 03:09:16;;;;;;;4.45;1.48;;;;;;;25.20;45.64;100723.56;5002593;28;20057;-74
2022/08/09 03:11:45;;;;;;;2.22;1.05;;;;;;;24.90;46.59;100704.16;5003275;28;20145;-74
2022/08/09 03:14:15;;;;;;;4.65;1.60;;;;;;;24.76;47.05;100731.94;4999689;28;20069;-76
2022/08/09 03:16:45;;;;;;;4.53;1.40;;;;;;;24.54;47.18;100704.38;5012403;28;20294;-76
2022/08/09 03:19:15;;;;;;;2.97;1.20;;;;;;;24.61;47.52;100727.94;5003561;28;20084;-77
2022/08/09 03:21:56;;;;;;;3.13;1.45;;;;;;;24.60;47.59;100730.63;5002525;28;20102;-75
2022/08/09 03:24:26;;;;;;;2.63;1.10;;;;;;;24.37;46.99;100702.16;5005427;28;20050;-74
2022/08/09 03:27:11;;;;;;;1.95;1.20;;;;;;;24.46;47.61;100730.97;5000825;28;20054;-76
2022/08/09 03:29:41;;;;;;;4.07;1.33;;;;;;;24.31;47.69;100719.06;5001054;28;20089;-78
2022/08/09 03:32:10;;;;;;;1.65;1.13;;;;;;;24.05;48.10;100685.41;4998466;28;20103;-75
2022/08/09 03:34:39;;;;;;;4.15;1.40;;;;;;;24.10;47.98;100725.81;5004796;28;20054;-74
2022/08/09 03:37:10;;;;;;;3.05;1.50;;;;;;;24.03;48.97;100725.13;4998695;28;20383;-76
2022/08/09 03:39:39;;;;;;;3.90;1.45;;;;;;;24.05;48.85;100743.56;5001687;28;20117;-74
2022/08/09 03:42:08;;;;;;;5.93;1.50;;;;;;;23.99;49.00;100749.88;5003147;28;20053;-76
2022/08/09 03:44:37;;;;;;;2.47;1.05;;;;;;;23.70;49.28;100723.31;5002059;28;20119;-76
2022/08/09 03:47:13;;;;;;;5.75;1.27;;;;;;;23.78;49.94;100761.03;4997920;28;20088;-78
2022/08/09 03:49:43;;;;;;;5.10;1.50;;;;;;;23.50;49.98;100740.53;5000659;28;20046;-78
2022/08/09 03:52:15;;;;;;;4.00;1.33;;;;;;;23.38;50.29;100757.53;5006980;28;20120;-77
2022/08/09 03:54:46;;;;;;;5.22;1.40;;;;;;;22.98;50.91;100721.47;4999432;28;20055;-75
2022/08/09 03:57:16;;;;;;;4.28;1.13;;;;;;;22.93;51.16;100733.00;5002900;28;20078;-76
2022/08/09 03:59:45;;;;;;;3.13;1.50;;;;;;;22.85;51.91;100735.81;4999691;28;20393;-75
2022/08/09 04:02:26;;;;;;;2.10;1.40;;;;;;;22.76;52.46;100750.06;4992141;28;20058;-76
2022/08/09 04:04:56;;;;;;;3.05;1.42;;;;;;;22.64;52.80;100762.66;5002213;28;20057;-78
2022/08/09 04:07:28;;;;;;;2.38;1.20;;;;;;;22.34;54.00;100760.59;5002882;28;20106;-75
2022/08/09 04:09:57;;;;;;;2.35;1.33;;;;;;;22.13;54.78;100782.03;5006313;28;20042;-79
2022/08/09 04:12:44;;;;;;;2.83;1.63;;;;;;;22.01;55.49;100788.38;4997608;28;20452;-76
2022/08/09 04:15:29;;;;;;;3.50;1.63;;;;;;;21.78;55.37;100761.56;5001198;28;20093;-77
2022/08/09 04:17:58;;;;;;;4.05;1.60;;;;;;;21.93;55.43;100790.28;5002065;28;20110;-75
2022/08/09 04:20:27;;;;;;;4.22;1.42;;;;;;;21.78;55.54;100780.00;5010235;28;20085;-77
2022/08/09 04:22:57;;;;;;;3.08;1.55;;;;;;;21.69;56.48;100787.16;4997571;28;20093;-77
2022/08/09 04:25:26;;;;;;;2.33;1.60;;;;;;;21.45;56.82;100782.28;4996699;28;20364;-76
2022/08/09 04:27:55;;;;;;;3.63;1.70;;;;;;;21.35;57.54;100778.88;4995914;28;20078;-77
2022/08/09 04:30:26;;;;;;;3.35;1.50;;;;;;;21.30;57.37;100778.94;5006420;28;20061;-79
2022/08/09 04:32:55;;;;;;;2.47;1.58;;;;;;;21.27;57.57;100786.00;5001971;28;20049;-80
2022/08/09 04:35:24;;;;;;;4.65;1.92;;;;;;;21.03;57.72;100758.28;5011757;28;20084;-75
2022/08/09 04:37:53;;;;;;;3.50;1.40;;;;;;;21.28;57.80;100803.53;4999125;28;20066;-73
2022/08/09 04:40:46;;;;;;;2.25;1.30;;;;;;;21.18;58.54;100788.75;5007695;28;20049;-75
2022/08/09 04:43:12;;;;;;;3.58;1.67;;;;;;;21.17;58.26;100776.50;5002715;28;20117;-77
2022/08/09 04:45:43;;;;;;;3.65;1.70;;;;;;;21.22;58.10;100795.72;5013127;28;20057;-78
2022/08/09 04:48:12;;;;;;;2.20;1.42;;;;;;;20.96;58.69;100772.38;4996525;28;20239;-75
2022/08/09 04:50:41;;;;;;;4.22;1.90;;;;;;;20.90;58.59;100789.13;5009206;28;20369;-76
2022/08/09 04:53:10;;;;;;;4.13;1.75;;;;;;;20.73;59.38;100770.03;5001651;28;20054;-78
2022/08/09 04:55:43;;;;;;;3.92;1.70;;;;;;;20.88;59.58;100801.41;4998659;28;20124;-77
2022/08/09 04:58:12;;;;;;;2.97;1.77;;;;;;;20.70;59.89;100803.38;4993158;28;20045;-79
2022/08/09 05:00:41;;;;;;;4.07;1.70;;;;;;;20.65;60.29;100813.06;4998576;28;20109;-76
2022/08/09 05:03:09;;;;;;;3.25;1.60;;;;;;;20.50;61.00;100794.81;4996435;28;20056;-77
2022/08/09 05:05:38;;;;;;;3.03;1.70;;;;;;;20.40;61.70;100808.94;5002509;28;20109;-75
2022/08/09 05:08:10;;;;;;;3.65;1.73;;;;;;;20.05;62.59;100797.00;4997570;28;20163;-76
2022/08/09 05:10:40;;;;;;;2.85;1.95;;;;;;;20.07;63.39;100827.63;5000312;28;20070;-78
2022/08/09 05:13:09;;;;;;;2.65;1.98;;;;;;;19.75;63.62;100790.28;5000506;28;20381;-76
2022/08/09 05:15:38;;;;;;;2.30;1.80;;;;;;;19.91;63.70;100817.28;5002982;28;20053;-78
2022/08/09 05:18:06;;;;;;;2.90;1.73;;;;;;;19.92;64.05;100824.25;5001330;28;20053;-80
2022/08/09 05:20:35;;;;;;;2.40;1.90;;;;;;;19.95;64.05;100826.84;5000006;28;20053;-74
2022/08/09 05:23:04;;;;;;;2.55;1.77;;;;;;;19.70;63.97;100795.56;4999409;28;20074;-80
2022/08/09 05:25:33;;;;;;;4.90;1.92;;;;;;;19.73;64.52;100813.91;4999869;28;20110;-80
2022/08/09 05:28:04;;;;;;;3.72;1.90;;;;;;;19.55;64.49;100811.38;4992435;28;20065;-76
2022/08/09 05:30:36;;;;;;;3.22;1.60;;;;;;;19.63;64.99;100820.94;5000501;28;20046;-83
2022/08/09 05:33:04;;;;;;;4.37;2.00;;;;;;;19.52;65.17;100819.28;5003885;28;20062;-76
2022/08/09 05:35:33;;;;;;;3.03;1.77;;;;;;;19.49;66.68;100838.50;5003494;28;20092;-77
2022/08/09 05:38:02;;;;;;;2.90;2.08;;;;;;;19.26;66.60;100809.78;5002497;28;20130;-73
2022/08/09 05:40:31;;;;;;;2.92;1.70;;;;;;;19.42;67.16;100848.19;4995579;28;20042;-75
2022/08/09 05:42:59;;;;;;;4.65;1.92;;;;;;;19.33;66.16;100835.09;4999037;28;20050;-74
2022/08/09 05:45:32;;;;;;;2.75;2.03;;;;;;;19.18;66.51;100822.06;5006224;28;20117;-73
2022/08/09 05:48:01;;;;;;;3.58;2.15;;;;;;;19.29;67.14;100859.63;5001002;28;20121;-73
2022/08/09 05:50:30;;;;;;;4.18;2.20;;;;;;;19.21;67.80;100861.41;5007673;28;20063;-74
2022/08/09 05:52:59;;;;;;;4.18;2.00;;;;;;;19.05;67.78;100848.34;5007528;28;20362;-73
2022/08/09 05:55:28;;;;;;;2.65;1.70;;;;;;;19.09;67.94;100866.72;5000411;28;20081;-73
2022/08/09 05:57:57;;;;;;;4.18;2.00;;;;;;;18.81;68.44;100832.72;4999274;28;20081;-73
2022/08/09 06:00:26;;;;;;;3.15;1.83;;;;;;;18.90;68.41;100863.25;4998641;28;20118;-72
2022/08/09 06:02:59;;;;;;;2.75;2.00;;;;;;;18.74;68.88;100851.94;4990507;28;20052;-74
2022/08/09 06:05:27;;;;;;;;;;;;;;;18.90;68.88;100878.97;4994565;28;20061;-74
2022/08/09 06:07:56;;;;;;;3.05;1.73;;;;;;;18.71;69.78;100871.13;5002025;28;19957;-73
2022/08/09 06:10:36;;;;;;;2.72;1.77;;;;;;;18.66;70.05;100869.41;5000243;28;20050;-73
2022/08/09 06:13:05;;;;;;;4.95;2.15;;;;;;;18.67;70.14;100886.88;5000254;28;20657;-73
2022/08/09 06:15:35;;;;;;;3.17;1.65;;;;;;;18.59;70.73;100874.66;4994272;28;20113;-74
2022/08/09 06:18:06;;;;;;;3.10;1.90;;;;;;;18.68;70.49;100894.72;5000635;28;20270;-73
2022/08/09 06:20:34;;;;;;;5.57;2.67;;;;;;;18.66;69.97;100891.25;4997944;28;20223;-74
2022/08/09 06:23:03;;;;;;;7.85;2.25;;;;;;;18.80;70.24;100914.84;5006749;28;20050;-74
2022/08/09 06:25:32;;;;;;;4.18;2.28;;;;;;;18.57;70.97;100901.75;4997527;28;20050;-73
2022/08/09 06:28:01;;;;;;;3.83;2.35;;;;;;;18.50;70.85;100893.00;5006228;28;20146;-74
2022/08/09 06:30:30;;;;;;;7.75;2.40;;;;;;;18.60;70.37;100914.84;4993799;28;20057;-74
2022/08/09 06:32:59;;;;;;;3.40;2.13;;;;;;;18.59;70.54;100907.84;4999564;28;20052;-74
2022/08/09 06:35:30;;;;;;;3.47;2.33;;;;;;;18.63;70.85;100913.09;5004816;28;20073;-73
2022/08/09 06:37:59;;;;;;;2.90;2.00;;;;;;;18.50;70.23;100890.38;4999074;28;20085;-73
2022/08/09 06:40:42;;;;;;;2.90;2.28;;;;;;;18.69;70.56;100922.72;5006429;28;20251;-73
2022/08/09 06:43:14;;;;;;;4.30;2.17;;;;;;;18.73;70.06;100924.44;4997912;28;20157;-72
2022/08/09 06:45:44;;;;;;;3.58;2.15;;;;;;;18.73;70.42;100918.31;4998643;28;20050;-73
2022/08/09 06:48:13;;;;;;;4.70;1.98;;;;;;;18.73;69.96;100913.94;5003691;28;20058;-72
2022/08/09 06:53:37;;;;;;;2.80;2.03;;;;;;;18.56;70.27;100915.72;4992008;28;20050;-74
2022/08/09 06:56:07;;;;;;;4.72;2.00;;;;;;;18.60;70.55;100922.72;5003189;28;20138;-73
2022/08/09 06:58:50;;;;;;;4.75;2.00;;;;;;;18.38;70.67;100895.66;5000915;28;20064;-72
2022/08/09 07:01:25;;;;;;;3.78;1.85;;;;;;;18.57;70.91;100925.31;5004252;28;20092;-73
2022/08/09 07:04:16;;;;;;;;;;;;;;;;;;;;;
2022/08/09 07:09:41;;;;;;;4.38;2.40;;;;;;;18.65;70.82;100926.19;4995152;28;20054;-72
2022/08/09 07:15:22;;;;;;;5.18;2.20;;;;;;;18.59;70.39;100908.72;5001691;28;20117;-72
2022/08/09 07:18:02;;;;;;;5.32;1.85;;;;;;;18.59;71.13;100915.72;5000159;28;20057;-73
2022/08/09 07:20:52;;;;;;;;;;;;;;;;;;;;;
2022/08/09 07:26:29;;;;;;;;;;;;;;;;;;;;;
2022/08/09 07:29:07;;;;;;;4.05;2.17;;;;;;;18.59;70.99;100918.34;5000949;28;20042;-71
2022/08/09 07:34:21;;;;;;;4.35;2.45;;;;;;;18.58;70.85;100893.88;4999987;28;20074;-73
2022/08/09 07:36:52;;;;;;;3.65;2.20;;;;;;;18.48;70.51;100870.31;4998680;28;20046;-73
2022/08/09 07:39:28;;;;;;;3.53;2.30;;;;;;;18.50;71.14;100866.81;4995685;28;20093;-73
2022/08/09 07:42:10;;;;;;;3.92;2.22;;;;;;;18.38;70.69;100843.25;5000085;28;20065;-73
2022/08/09 07:44:49;;;;;;;3.50;2.00;;;;;;;18.42;70.61;100845.88;5002848;28;20084;-72
2022/08/09 07:50:05;;;;;;;3.92;2.40;;;;;;;18.41;70.99;100851.97;4990997;28;20121;-73
2022/08/09 07:52:40;;;;;;;3.42;2.05;;;;;;;18.51;70.82;100865.06;5002738;28;20081;-72
2022/08/09 07:55:13;;;;;;;3.45;2.20;;;;;;;18.50;70.57;100866.81;4996961;28;20461;-74
2022/08/09 07:57:49;;;;;;;3.65;2.50;;;;;;;18.52;70.62;100857.19;5005971;28;20794;-74
2022/08/09 08:00:19;;;;;;;3.78;2.15;;;;;;;18.35;70.16;100827.56;5003862;28;20061;-73
2022/08/09 08:02:48;;;;;;;4.28;2.42;;;;;;;18.31;71.71;100828.41;4999305;28;20058;-75
2022/08/09 08:05:17;;;;;;;3.28;1.90;;;;;;;18.11;72.63;100815.34;4999785;28;20046;-74
2022/08/09 08:07:48;;;;;;;3.65;2.10;;;;;;;18.19;72.19;100852.88;4999105;28;20339;-73
2022/08/09 08:10:23;;;;;;;3.20;2.20;;;;;;;18.14;72.37;100865.06;4997730;28;20057;-74
2022/08/09 08:12:51;;;;;;;3.38;2.28;;;;;;;18.00;72.68;100851.97;4997776;28;20046;-75
2022/08/09 08:15:25;;;;;;;4.72;2.45;;;;;;;18.01;72.84;100858.97;4993737;28;20260;-72
2022/08/09 08:17:59;;;;;;;4.22;2.65;;;;;;;17.95;72.79;100838.03;4998771;28;20050;-73
2022/08/09 08:20:50;;;;;;;3.40;2.40;;;;;;;17.78;73.51;100822.28;5003636;28;20081;-77
2022/08/09 08:23:26;;;;;;;4.07;2.28;;;;;;;17.90;73.41;100855.47;5001496;28;20108;-73
2022/08/09 08:26:00;;;;;;;3.13;2.20;;;;;;;17.79;73.21;100810.94;4995869;28;20050;-73
2022/08/09 08:28:39;;;;;;;3.78;2.38;;;;;;;17.86;73.33;100801.38;5005010;28;20054;-72
2022/08/09 08:31:08;;;;;;;2.78;2.38;;;;;;;17.84;73.60;100805.72;4999486;28;20056;-73
2022/08/09 08:33:43;;;;;;;3.78;2.45;;;;;;;17.72;73.77;100814.41;5001135;28;20418;-73
2022/08/09 08:36:33;;;;;;;3.22;2.40;;;;;;;17.61;74.32;100817.00;5002144;28;20238;-74
2022/08/09 08:39:13;;;;;;;3.90;2.38;;;;;;;17.60;74.78;100830.97;5001128;28;20058;-75
2022/08/09 08:41:44;;;;;;;3.97;2.38;;;;;;;17.48;75.60;100830.97;4991176;28;20066;-74
2022/08/09 08:44:14;;;;;;;4.70;2.85;;;;;;;17.49;77.06;100851.00;4991582;28;20070;-73
2022/08/09 08:46:55;;;;;;;3.70;2.30;;;;;;;17.48;76.34;100857.13;4988325;28;20099;-73
2022/08/09 08:49:24;;;;;;;4.60;2.65;;;;;;;17.29;76.26;100815.19;4987224;28;20063;-74
2022/08/09 08:51:56;;;;;;;4.07;2.33;;;;;;;17.53;76.81;100866.72;4989185;28;20054;-75
2022/08/09 08:54:26;;;;;;;3.88;2.00;;;;;;;17.21;76.98;100816.94;4999005;28;20302;-74
2022/08/09 08:57:18;;;;;;;3.78;2.33;;;;;;;17.39;76.50;100852.72;4998136;28;20062;-72
2022/08/09 08:59:47;;;;;;;5.70;2.85;;;;;;;17.36;76.48;100844.84;5001839;28;20053;-74
2022/08/09 09:02:25;;;;;;;4.28;2.63;;;;;;;17.44;76.58;100864.06;4999235;28;20338;-74
2022/08/09 09:05:10;;;;;;;7.00;2.60;;;;;;;17.39;76.84;100863.19;5004737;28;20045;-74
2022/08/09 09:07:42;;;;;;;5.40;2.53;;;;;;;17.41;76.76;100878.88;4999097;28;20238;-74
2022/08/09 09:10:13;;;;;;;4.03;2.47;;;;;;;17.37;78.14;100885.84;5001868;28;20117;-74
2022/08/09 09:15:41;;;;;;;3.58;2.47;;;;;;;17.27;78.04;100899.75;4995279;28;20046;-74
2022/08/09 09:18:22;;;;;;;5.77;2.90;;;;;;;17.17;78.17;100891.84;5001102;28;20062;-72
2022/08/09 09:20:51;;;;;;;3.97;3.35;;;;;;;17.12;77.89;100884.88;4994688;28;20335;-74
2022/08/09 09:23:49;;;;;;;4.40;3.05;;;;;;;17.23;77.95;100887.53;5002985;28;20054;-73
2022/08/09 09:26:28;;;;;;;6.85;2.63;;;;;;;17.17;77.26;100889.25;4999272;28;20322;-72
2022/08/09 09:29:17;;;;;;;4.00;2.47;;;;;;;17.17;77.54;100873.56;4994366;28;20065;-74
2022/08/09 09:31:51;;;;;;;3.10;2.22;;;;;;;17.21;77.33;100877.06;5001771;28;20057;-72
2022/08/09 09:34:27;;;;;;;3.50;2.65;;;;;;;17.17;77.40;100877.91;5006041;28;20053;-74
2022/08/09 09:37:00;;;;;;;3.53;2.75;;;;;;;17.24;76.91;100887.53;4996757;28;20070;-75
2022/08/09 09:39:43;;;;;;;3.10;2.55;;;;;;;17.17;77.21;100888.38;4996278;28;20100;-73
2022/08/09 09:42:26;;;;;;;3.92;2.67;;;;;;;17.21;77.92;100895.38;4990485;28;20053;-72
2022/08/09 09:50:52;;;;;;;3.90;2.40;;;;;;;17.04;78.74;100899.63;4996673;28;20053;-74
2022/08/09 09:53:33;;;;;;;5.95;3.08;;;;;;;17.16;77.99;100918.00;4991271;28;20109;-73
2022/08/09 09:56:03;;;;;;;4.97;2.97;;;;;;;17.20;78.54;100940.69;4999717;28;20047;-74
2022/08/09 09:58:46;;;;;;;4.55;2.75;;;;;;;16.84;78.75;100889.97;5000119;28;20081;-75
2022/08/09 10:01:39;;;;;;;4.47;2.80;;;;;;;17.07;78.23;100934.53;5002048;28;20054;-75
2022/08/09 10:04:21;;;;;;;4.13;2.22;;;;;;;16.98;79.19;100925.75;4995853;28;20066;-73
2022/08/09 10:06:54;;;;;;;4.28;2.53;;;;;;;16.93;79.04;100908.31;4998944;28;20050;-72
2022/08/09 10:09:41;;;;;;;3.83;2.25;;;;;;;17.07;78.60;100941.50;5003482;28;20061;-73
2022/08/09 10:12:13;;;;;;;4.25;2.55;;;;;;;17.19;78.63;100943.31;4991750;28;20058;-72
2022/08/09 10:14:41;;;;;;;;;;;;;;;17.24;78.71;100942.44;4995518;28;20058;-72
2022/08/09 10:17:15;;;;;;;4.07;2.30;;;;;;;17.22;78.66;100933.72;5002060;28;20615;-74
2022/08/09 10:19:44;;;;;;;6.35;2.85;;;;;;;17.30;79.59;100939.88;4996153;28;20061;-77
2022/08/09 10:22:12;;;;;;;4.05;2.35;;;;;;;17.23;80.41;100925.03;4999434;28;20055;-77
2022/08/09 10:24:42;;;;;;;3.78;2.70;;;;;;;17.19;80.29;100911.94;4997018;28;20150;-75
2022/08/09 10:27:11;;;;;;;4.25;2.58;;;;;;;17.22;80.96;100922.38;4997713;28;20051;-76
2022/08/09 10:29:48;;;;;;;5.28;2.67;;;;;;;17.20;81.46;100930.22;5003998;28;20056;-76
2022/08/09 10:32:25;;;;;;;4.35;2.67;;;;;;;17.21;81.90;100942.44;5006161;28;20058;-76
2022/08/09 10:34:56;;;;;;;6.22;2.88;;;;;;;16.93;82.29;100884.78;5003166;28;20101;-76
2022/08/09 10:37:34;;;;;;;4.10;2.58;;;;;;;17.00;82.01;100879.59;4998287;28;20068;-75
2022/08/09 10:40:07;;;;;;;3.72;2.83;;;;;;;17.07;82.94;100878.75;5000111;28;20117;-75
2022/08/09 10:42:45;;;;;;;5.88;2.75;;;;;;;17.21;82.60;100918.03;5005319;28;20050;-74
2022/08/09 10:45:16;;;;;;;6.28;2.97;;;;;;;17.03;82.69;100892.66;5000967;28;20413;-76
2022/08/09 10:48:03;;;;;;;5.85;2.97;;;;;;;17.18;82.96;100931.97;5000821;28;20101;-77
2022/08/09 10:54:04;;;;;;;3.95;2.33;;;;;;;17.08;83.25;100912.72;5000706;28;20093;-76
2022/08/09 10:56:36;;;;;;;4.28;2.28;;;;;;;17.00;83.02;100895.28;4970642;28;20070;-76
2022/08/09 10:59:53;;;;;;;4.53;2.90;;;;;;;16.87;84.06;100883.88;4992495;28;20064;-75
2022/08/09 11:02:45;;;;;;;4.13;2.45;;;;;;;16.81;83.75;100876.84;5000270;28;20082;-75
2022/08/09 11:05:40;;;;;;;3.63;2.42;;;;;;;16.90;83.75;100900.41;4997336;28;20114;-76
2022/08/09 11:08:40;;;;;;;4.75;2.75;;;;;;;16.89;85.51;100911.75;5001526;28;20074;-75
2022/08/09 11:11:12;;;;;;;5.38;2.88;;;;;;;16.82;84.05;100903.88;5001223;28;20042;-76
2022/08/09 11:13:41;;;;;;;7.13;2.50;;;;;;;16.82;84.08;100904.75;5005923;28;20057;-76
2022/08/09 11:16:37;;;;;;;5.45;2.83;;;;;;;16.92;84.33;100923.97;5003011;28;20064;-76
2022/08/09 11:19:17;;;;;;;5.35;3.13;;;;;;;16.81;84.76;100909.97;4998240;28;20054;-75
2022/08/09 11:21:58;;;;;;;3.65;2.80;;;;;;;16.58;84.90;100873.19;5010512;28;20061;-77
2022/08/09 11:24:47;;;;;;;5.57;3.03;;;;;;;16.68;84.98;100882.84;5010167;28;20103;-75
2022/08/09 11:27:40;;;;;;;5.88;2.97;;;;;;;16.87;84.74;100897.81;5005004;28;20050;-77
2022/08/09 11:30:13;;;;;;;4.75;2.50;;;;;;;16.77;85.39;100875.06;4998385;28;20057;-76
2022/08/09 11:32:52;;;;;;;5.90;2.97;;;;;;;16.71;84.84;100851.50;4992932;28;20046;-75
2022/08/09 11:35:39;;;;;;;4.03;2.72;;;;;;;16.81;84.88;100850.72;5004230;28;20230;-76
2022/08/09 11:38:21;;;;;;;3.28;2.72;;;;;;;16.96;85.80;100883.91;5001287;28;20085;-77
2022/08/09 11:41:10;;;;;;;5.47;2.95;;;;;;;16.84;85.93;100884.72;4990460;28;20046;-77
2022/08/09 11:43:47;;;;;;;5.05;3.20;;;;;;;16.76;85.96;100875.94;5001684;28;20062;-76
2022/08/09 11:46:17;;;;;;;4.25;2.97;;;;;;;16.63;85.79;100850.59;4998167;28;20323;-75
2022/08/09 11:48:54;;;;;;;5.90;3.13;;;;;;;16.59;86.06;100827.94;5002972;28;20042;-74
2022/08/09 11:51:29;;;;;;;5.25;2.85;;;;;;;16.64;85.42;100832.31;5002303;28;20038;-75
2022/08/09 11:54:19;;;;;;;3.78;3.13;;;;;;;16.82;86.01;100881.22;4996547;28;20050;-80
2022/08/09 11:56:50;;;;;;;4.43;2.97;;;;;;;16.67;86.34;100870.66;4979067;28;20066;-76
2022/08/09 11:59:32;;;;;;;3.38;2.60;;;;;;;16.50;86.15;100831.38;5005897;28;20097;-74
2022/08/09 12:02:03;;;;;;;5.70;2.60;;;;;;;16.57;85.91;100843.59;4996963;28;20077;-76
2022/08/09 12:04:36;;;;;;;5.38;2.67;;;;;;;16.62;86.39;100859.28;4996447;28;20304;-74
2022/08/09 12:07:05;;;;;;;4.97;2.80;;;;;;;16.64;87.60;100878.47;4999132;28;20085;-76
2022/08/09 12:09:47;;;;;;;6.70;2.92;;;;;;;16.63;86.75;100893.28;4998520;28;20076;-75
2022/08/09 12:12:28;;;;;;;4.70;2.88;;;;;;;16.60;86.79;100884.53;5003046;28;20206;-74
2022/08/09 12:14:57;;;;;;;4.30;2.95;;;;;;;16.53;86.95;100874.03;5003381;28;20253;-78
2022/08/09 12:17:41;;;;;;;5.15;2.92;;;;;;;16.59;86.68;100894.13;5005656;28;20046;-79
2022/08/09 12:20:35;;;;;;;5.63;3.40;;;;;;;16.58;87.56;100896.72;5007894;28;20065;-77
2022/08/09 12:23:25;;;;;;;6.38;3.08;;;;;;;16.60;87.42;100884.53;4996949;28;20077;-75
2022/08/09 12:26:01;;;;;;;8.38;3.30;;;;;;;16.53;86.96;100874.03;4998900;28;20417;-75
2022/08/09 12:28:30;;;;;;;4.28;2.97;;;;;;;16.42;86.71;100846.09;5001093;28;20058;-78
2022/08/09 12:31:02;;;;;;;4.25;2.60;;;;;;;16.60;86.16;100864.50;4995746;28;20070;-75
2022/08/09 12:33:41;;;;;;;6.38;3.17;;;;;;;16.43;86.23;100827.84;4997064;28;20052;-75
2022/08/09 12:36:11;;;;;;;6.30;2.92;;;;;;;16.52;85.93;100834.88;5000612;28;20058;-75
2022/08/09 12:38:41;;;;;;;4.43;2.92;;;;;;;16.53;85.64;100836.59;5002530;28;20062;-76
2022/08/09 12:41:14;;;;;;;3.08;2.55;;;;;;;16.46;85.51;100819.16;4999016;28;20442;-76
2022/08/09 12:43:57;;;;;;;4.07;2.53;;;;;;;16.70;86.04;100858.50;5006344;28;20373;-75
2022/08/09 12:46:41;;;;;;;4.88;3.08;;;;;;;16.58;85.86;100832.25;4998506;28;20053;-75